Temp: 17.0°C   Baro: 1010.5mb
  Wind: 6.9mph   Dir: NW (310°)
  Rain: 0.8mm (0.0mm/hr)
  Solar: 95W/m2  Hum: 90%
 
Bath Spa Weather Station Historical Data
Daily Summary for November 26, 2019 Units:  Metric    English   Both
Daily Weekly Monthly Yearly Custom
  High: Low: Average:
Temperature: 14.2 °C 9.8 °C 11.8 °C
Dew Point: 12.2 °C 8.6 °C 10 °C
Humidity: 95% 83% 89%
Wind Speed: 38.9km/h 0km/h 7.2km/h
Wind Gust: 66km/h - -
Wind- - South
Pressure: 999.9 hPa 984.6 hPa -
Precipitation: 2.29 mm    
Historical Graphs
 
 
Tabular Data for November 26, 2019
Time Temperature Dew Point Pressure Wind Wind Speed Wind Gust Humidity Rainfall Rate (Hourly) solar
00:04 10.2 °C 8.8 °C 999.5 hPa WSW 6 km/h 11.3 km/h 91% 0 mm 0 W/m2
00:09 10.2 °C 8.8 °C 999.9 hPa SW 7.7 km/h 19.3 km/h 91% 0 mm 0 W/m2
00:13 10.2 °C 8.8 °C 999.5 hPa SW 5.1 km/h 19.3 km/h 91% 0 mm 0 W/m2
00:19 10.2 °C 8.8 °C 999.5 hPa SW 3.2 km/h 9.7 km/h 91% 0 mm 0 W/m2
00:24 10.2 °C 8.8 °C 999.5 hPa SW 1 km/h 9.7 km/h 91% 0 mm 0 W/m2
00:29 10.2 °C 8.7 °C 999.5 hPa Calm     90.8% 0 mm 0 W/m2
00:34 10.2 °C 8.6 °C 999.5 hPa Calm     90.4% 0 mm 0 W/m2
00:39 10.1 °C 8.7 °C 999.5 hPa Calm     91% 0 mm 0 W/m2
00:44 10.1 °C 8.7 °C 999.5 hPa SW 1.6 km/h 3.2 km/h 91% 0 mm 0 W/m2
00:49 10.1 °C 8.7 °C 999.5 hPa SW 1.6 km/h 4.8 km/h 91% 0 mm 0 W/m2
00:54 10.1 °C 8.7 °C 999.5 hPa SW 0.3 km/h 3.2 km/h 91% 0 mm 0 W/m2
00:59 10.1 °C 8.7 °C 999.5 hPa SW 4.2 km/h 9.7 km/h 91% 0 mm 0 W/m2
01:04 10.2 °C 8.7 °C 999.5 hPa SW 2.6 km/h 9.7 km/h 91% 0 mm 0 W/m2
01:09 10.2 °C 8.8 °C 999.2 hPa SW 1.9 km/h 9.7 km/h 91% 0 mm 0 W/m2
01:14 10.2 °C 8.8 °C 999.2 hPa SSW 0.3 km/h 8 km/h 91% 0 mm 0 W/m2
01:19 10.2 °C 8.8 °C 999.2 hPa SSW 1.3 km/h 8 km/h 91% 0 mm 0 W/m2
01:24 10.2 °C 8.8 °C 999.2 hPa SSW 0.8 km/h 6.4 km/h 91% 0 mm 0 W/m2
01:29 10.2 °C 8.8 °C 999.2 hPa SSW 4.7 km/h 9.7 km/h 91% 0 mm 0 W/m2
01:34 10.1 °C 8.8 °C 999.2 hPa SSW 3.5 km/h 11.3 km/h 91.2% 0 mm 0 W/m2
01:39 10.1 °C 8.8 °C 998.9 hPa SSW 1 km/h 4.8 km/h 91.6% 0 mm 0 W/m2
01:44 10.1 °C 8.7 °C 998.9 hPa SSW 1.9 km/h 6.4 km/h 91% 0 mm 0 W/m2
01:49 10 °C 8.6 °C 998.9 hPa SSW 1.9 km/h 6.4 km/h 91% 0 mm 0 W/m2
01:54 9.9 °C 8.6 °C 998.5 hPa SSW 2.9 km/h 8 km/h 91% 0 mm 0 W/m2
07:09 9.8 °C 8.7 °C 992.8 hPa ESE 11.7 km/h 29 km/h 93% 0.25 mm 0 W/m2
07:14 9.8 °C 8.7 °C 992.4 hPa ESE 8.4 km/h 35.4 km/h 93% 0.25 mm 0 W/m2
07:19 9.8 °C 8.7 °C 992.8 hPa SE 11.7 km/h 33.8 km/h 93% 0.25 mm 0 W/m2
07:24 9.8 °C 8.8 °C 992.4 hPa SE 11.6 km/h 30.6 km/h 93.4% 0.25 mm 0 W/m2
07:29 9.8 °C 8.9 °C 992.4 hPa ESE 9 km/h 30.6 km/h 94% 0.51 mm 0 W/m2
07:34 9.9 °C 9 °C 992.4 hPa ESE 20 km/h 43.5 km/h 94% 0.51 mm 0 W/m2
07:39 9.9 °C 9 °C 992.4 hPa ESE 11.9 km/h 43.5 km/h 94% 0.51 mm 0 W/m2
07:44 10 °C 9.1 °C 992.1 hPa SE 11.3 km/h 22.5 km/h 94% 0.51 mm 0 W/m2
07:49 10.1 °C 9.2 °C 991.8 hPa ESE 7.1 km/h 17.7 km/h 94% 0.51 mm 0 W/m2
07:54 10.1 °C 9.2 °C 991.8 hPa SE 7.2 km/h 14.5 km/h 94% 0.51 mm 0 W/m2
07:59 10.2 °C 9.2 °C 991.8 hPa SE 10.9 km/h 19.3 km/h 94% 0.51 mm 0 W/m2
08:04 10.3 °C 9.4 °C 991.8 hPa SSE 11.6 km/h 24.1 km/h 94% 0.51 mm 5 W/m2
08:09 10.4 °C 9.6 °C 991.8 hPa SSE 13.2 km/h 27.4 km/h 94.2% 0.51 mm 11 W/m2
08:14 10.7 °C 9.8 °C 991.8 hPa SSE 17.7 km/h 38.6 km/h 95% 0.51 mm 14 W/m2
08:19 10.8 °C 10 °C 991.8 hPa SSE 14.6 km/h 38.6 km/h 95% 0.51 mm 19 W/m2
08:24 11 °C 10.2 °C 991.4 hPa SE 15.4 km/h 24.1 km/h 95% 0.51 mm 16 W/m2
08:29 11.2 °C 10.3 °C 991.4 hPa SSE 15.3 km/h 27.4 km/h 95% 0.25 mm 14 W/m2
08:34 11.2 °C 10.4 °C 991.4 hPa SSE 13.4 km/h 22.5 km/h 95% 0.25 mm 18 W/m2
08:39 11.3 °C 10.6 °C 991.4 hPa SSE 9 km/h 22.5 km/h 95% 0.25 mm 23 W/m2
08:44 11.5 °C 10.7 °C 991.4 hPa SSE 8 km/h 24.1 km/h 95% 0.25 mm 26 W/m2
08:49 11.7 °C 10.8 °C 991.4 hPa SSE 15.8 km/h 27.4 km/h 95% 0.25 mm 23 W/m2
08:54 11.7 °C 10.9 °C 991.4 hPa South 9.2 km/h 20.9 km/h 95% 0.25 mm 21 W/m2
08:59 11.8 °C 11 °C 991.1 hPa SSE 13.5 km/h 29 km/h 95% 0.25 mm 19 W/m2
09:04 11.8 °C 11.1 °C 991.1 hPa SSE 4.7 km/h 17.7 km/h 95% 0.25 mm 40 W/m2
09:09 12.1 °C 11.2 °C 991.1 hPa South 14.8 km/h 20.9 km/h 95% 0.25 mm 39 W/m2
09:14 12.2 °C 11.4 °C 991.1 hPa South 7.2 km/h 19.3 km/h 95% 0.25 mm 26 W/m2
09:19 12.3 °C 11.5 °C 991.1 hPa SSW 11.1 km/h 20.9 km/h 95% 0.25 mm 23 W/m2
09:24 12.5 °C 11.7 °C 991.1 hPa South 8.4 km/h 22.5 km/h 95% 0.51 mm 25 W/m2
09:29 12.6 °C 11.8 °C 991.1 hPa SW 5.6 km/h 22.5 km/h 95% 0.51 mm 49 W/m2
09:34 12.7 °C 11.8 °C 991.1 hPa SSW 8.4 km/h 22.5 km/h 94.2% 0.51 mm 58 W/m2
09:39 12.8 °C 11.9 °C 991.1 hPa SSW 6.9 km/h 25.7 km/h 94% 0.51 mm 47 W/m2
09:44 12.9 °C 12 °C 991.1 hPa SSW 4.8 km/h 17.7 km/h 94% 0.51 mm 26 W/m2
09:49 12.9 °C 12 °C 991.1 hPa SSW 4 km/h 25.7 km/h 94% 0.51 mm 19 W/m2
09:54 12.8 °C 11.9 °C 991.1 hPa South 8.5 km/h 14.5 km/h 94% 0.51 mm 23 W/m2
09:59 12.9 °C 12 °C 991.1 hPa SSW 10.9 km/h 17.7 km/h 94% 0.51 mm 21 W/m2
10:04 12.9 °C 11.9 °C 991.1 hPa South 18 km/h 27.4 km/h 93.4% 0.51 mm 25 W/m2
10:09 13.1 °C 12 °C 990.7 hPa SSE 11.9 km/h 25.7 km/h 93% 0.51 mm 33 W/m2
10:14 13.2 °C 12.1 °C 991.1 hPa South 10.3 km/h 35.4 km/h 93% 0.51 mm 21 W/m2
10:19 13.3 °C 12.2 °C 991.1 hPa South 13.2 km/h 35.4 km/h 93% 0.51 mm 16 W/m2
10:24 13.3 °C 12 °C 991.1 hPa SSW 13.5 km/h 22.5 km/h 92% 0.25 mm 28 W/m2
10:29 13.3 °C 12 °C 991.1 hPa SSW 18 km/h 37 km/h 92% 0.25 mm 53 W/m2
10:34 13.4 °C 12.1 °C 991.1 hPa SSW 15.1 km/h 27.4 km/h 91.8% 0.25 mm 70 W/m2
10:39 13.5 °C 12.1 °C 991.1 hPa SW 18.7 km/h 41.8 km/h 91% 0.25 mm 111 W/m2
10:44 13.7 °C 12.1 °C 991.1 hPa South 17.7 km/h 33.8 km/h 90% 0.25 mm 100 W/m2
10:49 13.7 °C 12 °C 991.1 hPa SW 14.8 km/h 25.7 km/h 89.6% 0.25 mm 91 W/m2
10:54 13.7 °C 11.9 °C 991.1 hPa SSW 18.7 km/h 33.8 km/h 89% 0.25 mm 98 W/m2
10:59 13.7 °C 11.8 °C 991.1 hPa SSW 10 km/h 25.7 km/h 88.6% 0.25 mm 95 W/m2
11:04 13.7 °C 11.7 °C 990.7 hPa SSW 5.8 km/h 25.7 km/h 88% 0.25 mm 95 W/m2
11:09 13.7 °C 11.7 °C 990.7 hPa SSW 15.8 km/h 25.7 km/h 88% 0.25 mm 65 W/m2
11:14 13.7 °C 11.7 °C 990.7 hPa SSW 13.8 km/h 25.7 km/h 88% 0.25 mm 63 W/m2
11:19 13.7 °C 11.7 °C 990.7 hPa SSW 5 km/h 17.7 km/h 88% 0.25 mm 70 W/m2
11:24 13.6 °C 11.6 °C 990.7 hPa South 6.1 km/h 16.1 km/h 88% 0.25 mm 83 W/m2
11:29 13.6 °C 11.6 °C 990.7 hPa SSW 13.2 km/h 25.7 km/h 88% 0.25 mm 111 W/m2
11:34 13.7 °C 11.7 °C 990.7 hPa SSW 6.4 km/h 22.5 km/h 88% 0.25 mm 111 W/m2
11:39 13.7 °C 11.7 °C 990.7 hPa SSW 13.8 km/h 25.7 km/h 87.8% 0.25 mm 105 W/m2
11:44 13.7 °C 11.7 °C 990.7 hPa SSW 11.3 km/h 20.9 km/h 87% 0.25 mm 128 W/m2
11:49 13.8 °C 11.7 °C 990.7 hPa SSW 6.8 km/h 19.3 km/h 87% 0.25 mm 190 W/m2
11:54 13.9 °C 11.7 °C 990.7 hPa South 16.1 km/h 35.4 km/h 86.6% 0 mm 202 W/m2
11:59 14.2 °C 11.8 °C 990.7 hPa South 25.7 km/h 46.7 km/h 86% 0 mm 318 W/m2
12:04 14.2 °C 11.8 °C 990.4 hPa South 23.8 km/h 66 km/h 85.4% 0 mm 100 W/m2
12:09 14.1 °C 11.6 °C 990.4 hPa SSW 9.8 km/h 37 km/h 85% 0 mm 70 W/m2
12:14 14 °C 11.5 °C 990.4 hPa South 11.3 km/h 30.6 km/h 85% 0 mm 90 W/m2
12:19 13.9 °C 11.3 °C 990.4 hPa SSW 11.3 km/h 24.1 km/h 84.2% 0 mm 137 W/m2
12:23 13.9 °C 11.3 °C 990.4 hPa SSW 9.7 km/h 29 km/h 84.3% 0 mm 105 W/m2
12:29 13.8 °C 11.3 °C 990.4 hPa SSW 6 km/h 30.6 km/h 85% 0 mm 97 W/m2
12:34 13.9 °C 11.3 °C 990.4 hPa SSW 21.9 km/h 43.5 km/h 84.6% 0 mm 72 W/m2
12:39 13.9 °C 11.2 °C 990.1 hPa SSW 38.9 km/h 54.7 km/h 84% 0 mm 62 W/m2
12:44 13.9 °C 11.2 °C 990.1 hPa SSW 3.5 km/h 54.7 km/h 83.8% 0 mm 84 W/m2
12:49 13.9 °C 11.1 °C 990.1 hPa South 14.2 km/h 27.4 km/h 83.2% 0 mm 88 W/m2
12:54 13.9 °C 11.1 °C 990.1 hPa SSW 12.6 km/h 30.6 km/h 83% 0 mm 93 W/m2
12:59 13.9 °C 11.1 °C 990.1 hPa South 8.9 km/h 24.1 km/h 83% 0 mm 60 W/m2
13:04 13.8 °C 11.1 °C 990.1 hPa SSW 14.2 km/h 32.2 km/h 84% 0 mm 62 W/m2
13:09 13.7 °C 11 °C 990.1 hPa South 6.8 km/h 25.7 km/h 84% 0 mm 63 W/m2
13:14 13.7 °C 11.2 °C 990.1 hPa South 8.9 km/h 16.1 km/h 85% 0 mm 84 W/m2
13:19 13.6 °C 11.2 °C 990.1 hPa SSW 7.1 km/h 16.1 km/h 85.2% 0 mm 76 W/m2
13:24 13.6 °C 11.3 °C 989.7 hPa South 11.6 km/h 22.5 km/h 86% 0 mm 74 W/m2
13:29 13.6 °C 11.3 °C 989.7 hPa South 12.2 km/h 25.7 km/h 86% 0 mm 60 W/m2
13:34 13.6 °C 11.3 °C 989.7 hPa South 10.6 km/h 20.9 km/h 86% 0 mm 44 W/m2
13:39 13.6 °C 11.3 °C 989.7 hPa South 10.3 km/h 24.1 km/h 86% 0 mm 44 W/m2
13:44 13.3 °C 11.1 °C 989.7 hPa South 8.7 km/h 17.7 km/h 86.2% 0.25 mm 46 W/m2
13:49 13.2 °C 11 °C 989.7 hPa SSW 9.3 km/h 19.3 km/h 87% 0.51 mm 65 W/m2
13:54 12.8 °C 10.8 °C 989.7 hPa SSW 5.5 km/h 19.3 km/h 87% 0.51 mm 35 W/m2
13:59 12.8 °C 10.8 °C 989.7 hPa SW 11.9 km/h 25.7 km/h 87.6% 0.51 mm 69 W/m2
14:04 12.8 °C 10.9 °C 989.7 hPa WSW 5.8 km/h 19.3 km/h 88% 0.51 mm 193 W/m2
14:09 13 °C 11.1 °C 989.7 hPa SW 4.7 km/h 17.7 km/h 88% 0.51 mm 250 W/m2
14:14 13.2 °C 11.2 °C 989.7 hPa SW 3.2 km/h 9.7 km/h 88% 0.51 mm 142 W/m2
14:18 13.2 °C 11.4 °C 989.7 hPa SSW 3.9 km/h 12.9 km/h 89% 0.51 mm 111 W/m2
14:24 13.3 °C 11.3 °C 989.7 hPa SSW 5.6 km/h 14.5 km/h 88% 0.51 mm 104 W/m2
14:29 13.3 °C 11.3 °C 989.7 hPa SW 5.5 km/h 17.7 km/h 87.6% 0.51 mm 121 W/m2
14:34 13.4 °C 11.2 °C 989.7 hPa SSW 6.3 km/h 14.5 km/h 86.4% 0.51 mm 142 W/m2
14:39 13.5 °C 11.1 °C 989.4 hPa SSW 7.1 km/h 16.1 km/h 85.6% 0.51 mm 127 W/m2
14:44 13.4 °C 10.9 °C 989.4 hPa SSW 5.5 km/h 19.3 km/h 84.4% 0.51 mm 83 W/m2
14:49 13.4 °C 10.8 °C 989.4 hPa SSW 6 km/h 19.3 km/h 84% 0.51 mm 60 W/m2
14:54 13.3 °C 10.7 °C 989.4 hPa SSW 10.5 km/h 22.5 km/h 84% 0.25 mm 93 W/m2
14:59 13.2 °C 10.6 °C 989.4 hPa South 7.2 km/h 16.1 km/h 84% 0 mm 58 W/m2
15:04 13.1 °C 10.5 °C 989.1 hPa SSW 3.5 km/h 14.5 km/h 84% 0 mm 62 W/m2
15:09 13.1 °C 10.4 °C 989.4 hPa SSW 8.9 km/h 16.1 km/h 84% 0 mm 58 W/m2
15:14 12.9 °C 10.4 °C 989.4 hPa SSW 6.4 km/h 17.7 km/h 84.4% 0 mm 93 W/m2
15:19 13 °C 10.5 °C 989.1 hPa SW 8.9 km/h 22.5 km/h 85% 0 mm 74 W/m2
15:24 12.9 °C 10.4 °C 989.1 hPa SW 11.7 km/h 22.5 km/h 85% 0 mm 39 W/m2
15:28 12.8 °C 10.3 °C 989.4 hPa SSW 9.2 km/h 17.7 km/h 85% 0 mm 32 W/m2
15:34 12.7 °C 10.2 °C 989.4 hPa SSW 7.2 km/h 12.9 km/h 85% 0 mm 30 W/m2
15:39 12.7 °C 10.2 °C 989.4 hPa SSW 9.8 km/h 17.7 km/h 85% 0 mm 21 W/m2
15:44 12.6 °C 10.1 °C 989.4 hPa SSW 9.2 km/h 19.3 km/h 85% 0 mm 14 W/m2
15:49 12.4 °C 9.9 °C 989.4 hPa SSW 5.1 km/h 12.9 km/h 85% 0 mm 12 W/m2
15:54 12.3 °C 9.9 °C 989.4 hPa SSW 4.5 km/h 12.9 km/h 85% 0 mm 9 W/m2
15:59 12.2 °C 9.8 °C 989.4 hPa South 2.4 km/h 11.3 km/h 85% 0 mm 7 W/m2
16:04 12.2 °C 9.8 °C 989.4 hPa South 4.3 km/h 12.9 km/h 85% 0 mm 7 W/m2
16:09 12.2 °C 9.8 °C 989.4 hPa SSW 10 km/h 16.1 km/h 85% 0 mm 5 W/m2
16:14 12.1 °C 9.7 °C 989.4 hPa South 7.9 km/h 16.1 km/h 85% 0 mm 0 W/m2
16:19 12.1 °C 9.7 °C 989.4 hPa SSW 8 km/h 17.7 km/h 85% 0 mm 0 W/m2
16:24 12 °C 9.6 °C 989.4 hPa South 5.1 km/h 17.7 km/h 84.8% 0 mm 0 W/m2
16:29 11.9 °C 9.5 °C 989.4 hPa South 4.7 km/h 11.3 km/h 85% 0 mm 0 W/m2
16:34 11.8 °C 9.4 °C 989.1 hPa South 6 km/h 14.5 km/h 85% 0 mm 0 W/m2
16:38 11.8 °C 9.4 °C 989.1 hPa South 2.7 km/h 14.5 km/h 85% 0 mm 0 W/m2
16:44 11.8 °C 9.4 °C 989.4 hPa South 5.1 km/h 9.7 km/h 85% 0 mm 0 W/m2
16:49 11.7 °C 9.3 °C 989.1 hPa South 7.4 km/h 12.9 km/h 85% 0 mm 0 W/m2
16:54 11.8 °C 9.4 °C 989.1 hPa South 4.5 km/h 12.9 km/h 85% 0 mm 0 W/m2
16:59 11.8 °C 9.4 °C 989.1 hPa SSE 6.8 km/h 11.3 km/h 85% 0 mm 0 W/m2
17:04 11.8 °C 9.4 °C 989.1 hPa SE 3.5 km/h 9.7 km/h 85% 0 mm 0 W/m2
17:09 11.7 °C 9.3 °C 989.1 hPa SE 6 km/h 16.1 km/h 85% 0 mm 0 W/m2
17:14 11.7 °C 9.3 °C 989.1 hPa SSE 3.1 km/h 12.9 km/h 85% 0 mm 0 W/m2
17:19 11.6 °C 9.2 °C 989.1 hPa SE 5.5 km/h 16.1 km/h 85% 0 mm 0 W/m2
17:24 11.5 °C 9.1 °C 989.1 hPa SE 3.2 km/h 14.5 km/h 85% 0 mm 0 W/m2
17:29 11.4 °C 9 °C 989.1 hPa SE 3.2 km/h 16.1 km/h 85% 0 mm 0 W/m2
17:34 11.4 °C 9.1 °C 989.1 hPa SE 7.7 km/h 20.9 km/h 85.8% 0 mm 0 W/m2
17:39 11.4 °C 9.1 °C 989.1 hPa SSE 6.6 km/h 16.1 km/h 86% 0 mm 0 W/m2
17:44 11.4 °C 9.1 °C 989.1 hPa SSE 8.5 km/h 20.9 km/h 86% 0 mm 0 W/m2
17:49 11.4 °C 9.1 °C 989.1 hPa SSE 7.7 km/h 27.4 km/h 86% 0 mm 0 W/m2
17:54 11.4 °C 9.2 °C 989.1 hPa SE 4.7 km/h 27.4 km/h 86% 0 mm 0 W/m2
17:59 11.5 °C 9.2 °C 989.1 hPa SSE 5.1 km/h 20.9 km/h 86% 0 mm 0 W/m2
18:04 11.6 °C 9.2 °C 989.1 hPa SSE 1.9 km/h 11.3 km/h 86% 0 mm 0 W/m2
18:09 11.6 °C 9.3 °C 989.1 hPa SE 2.9 km/h 11.3 km/h 85.8% 0 mm 0 W/m2
18:14 11.6 °C 9.3 °C 989.1 hPa SE 1.3 km/h 9.7 km/h 86% 0 mm 0 W/m2
18:19 11.5 °C 9.2 °C 988.7 hPa SE 1.9 km/h 8 km/h 86% 0 mm 0 W/m2
18:24 11.5 °C 9.2 °C 988.7 hPa ESE 6.3 km/h 16.1 km/h 86% 0 mm 0 W/m2
18:28 11.5 °C 9.2 °C 988.7 hPa ESE 8 km/h 17.7 km/h 86% 0 mm 0 W/m2
18:34 11.4 °C 9.2 °C 988.7 hPa SE 4.7 km/h 17.7 km/h 86.8% 0 mm 0 W/m2
18:39 11.4 °C 9.3 °C 989.1 hPa SE 6.3 km/h 16.1 km/h 87% 0 mm 0 W/m2
18:44 11.4 °C 9.3 °C 989.1 hPa SE 7.7 km/h 25.7 km/h 87% 0 mm 0 W/m2
18:49 11.6 °C 9.5 °C 989.1 hPa SE 4.5 km/h 16.1 km/h 87% 0 mm 0 W/m2
18:54 11.6 °C 9.5 °C 989.1 hPa SE 6.3 km/h 14.5 km/h 87% 0 mm 0 W/m2
18:59 11.6 °C 9.5 °C 988.7 hPa SSE 5.1 km/h 25.7 km/h 87% 0 mm 0 W/m2
19:04 11.6 °C 9.3 °C 988.7 hPa SE 6.4 km/h 22.5 km/h 86.3% 0 mm 0 W/m2
19:09 11.6 °C 9.3 °C 988.7 hPa SSE 5.5 km/h 12.9 km/h 86% 0 mm 0 W/m2
19:14 11.4 °C 9.2 °C 988.4 hPa SE 2.7 km/h 22.5 km/h 86.4% 0 mm 0 W/m2
19:19 11.4 °C 9.2 °C 988.4 hPa SSE 5.1 km/h 9.7 km/h 86.6% 0 mm 0 W/m2
19:24 11.6 °C 9.4 °C 988.4 hPa SSE 4.7 km/h 12.9 km/h 87% 0 mm 0 W/m2
19:29 11.6 °C 9.3 °C 988.4 hPa SSE 7.9 km/h 12.9 km/h 86.2% 0 mm 0 W/m2
19:34 11.7 °C 9.3 °C 988.4 hPa SSE 3.4 km/h 17.7 km/h 86% 0 mm 0 W/m2
19:39 11.6 °C 9.3 °C 988 hPa SE 3.5 km/h 17.7 km/h 86% 0 mm 0 W/m2
19:44 11.5 °C 9.2 °C 988 hPa SE 3.2 km/h 17.7 km/h 86% 0 mm 0 W/m2
19:49 11.4 °C 9.2 °C 988 hPa SSE 5.6 km/h 14.5 km/h 86.6% 0 mm 0 W/m2
19:54 11.4 °C 9.3 °C 988 hPa South 5.8 km/h 14.5 km/h 87% 0 mm 0 W/m2
19:59 11.3 °C 9.3 °C 988 hPa South 6.6 km/h 14.5 km/h 87.4% 0 mm 0 W/m2
20:04 11.3 °C 9.4 °C 988 hPa SSE 6 km/h 9.7 km/h 88% 0 mm 0 W/m2
20:09 11.3 °C 9.4 °C 988 hPa South 7.6 km/h 20.9 km/h 88% 0 mm 0 W/m2
20:14 11.3 °C 9.4 °C 988 hPa SSE 10 km/h 20.9 km/h 88% 0 mm 0 W/m2
20:19 11.2 °C 9.3 °C 988 hPa SSE 3.9 km/h 11.3 km/h 88% 0 mm 0 W/m2
20:23 11.3 °C 9.3 °C 987.7 hPa SE 4.3 km/h 14.5 km/h 88% 0 mm 0 W/m2
20:29 11.3 °C 9.4 °C 987.7 hPa SSE 6 km/h 16.1 km/h 88% 0 mm 0 W/m2
20:34 11.3 °C 9.4 °C 987.7 hPa SSE 8.4 km/h 16.1 km/h 88% 0 mm 0 W/m2
20:39 11.3 °C 9.4 °C 988 hPa SSE 12.2 km/h 20.9 km/h 88% 0 mm 0 W/m2
20:44 11.4 °C 9.5 °C 987.7 hPa SSE 4 km/h 19.3 km/h 88% 0 mm 0 W/m2
20:49 11.4 °C 9.5 °C 987.7 hPa SSE 4 km/h 16.1 km/h 88% 0 mm 0 W/m2
20:54 11.3 °C 9.4 °C 987.7 hPa SE 4.2 km/h 12.9 km/h 88% 0 mm 0 W/m2
20:59 11.3 °C 9.4 °C 987.7 hPa SE 7.7 km/h 19.3 km/h 88% 0 mm 0 W/m2
21:04 11.3 °C 9.4 °C 987.4 hPa SE 3.4 km/h 12.9 km/h 88% 0 mm 0 W/m2
21:09 11.3 °C 9.4 °C 987.4 hPa SE 3.9 km/h 12.9 km/h 88% 0 mm 0 W/m2
21:14 11.3 °C 9.4 °C 987.4 hPa SSE 6.4 km/h 12.9 km/h 88% 0 mm 0 W/m2
21:19 11.2 °C 9.3 °C 987 hPa SE 1.8 km/h 19.3 km/h 88% 0 mm 0 W/m2
21:24 11.2 °C 9.3 °C 987 hPa SE 2.7 km/h 11.3 km/h 88% 0 mm 0 W/m2
21:29 11.1 °C 9.2 °C 987 hPa ESE 4.5 km/h 12.9 km/h 88% 0 mm 0 W/m2
21:34 11.1 °C 9.3 °C 987 hPa SE 2.1 km/h 12.9 km/h 88.2% 0 mm 0 W/m2
21:39 11.1 °C 9.4 °C 986.7 hPa SE 3.5 km/h 9.7 km/h 89% 0 mm 0 W/m2
21:44 11.1 °C 9.4 °C 986.7 hPa SSE 3.9 km/h 11.3 km/h 89% 0 mm 0 W/m2
21:49 11.1 °C 9.4 °C 986.7 hPa SE 4.5 km/h 11.3 km/h 89% 0 mm 0 W/m2
21:54 11.1 °C 9.2 °C 986.3 hPa SE 4 km/h 16.1 km/h 88.2% 0 mm 0 W/m2
21:59 10.9 °C 9.1 °C 986.3 hPa SE 2.9 km/h 9.7 km/h 88.2% 0 mm 0 W/m2
22:04 10.9 °C 9.1 °C 986 hPa SE 2.9 km/h 9.7 km/h 88.2% 0 mm 0 W/m2
22:09 10.9 °C 9.1 °C 986 hPa SE 2.7 km/h 9.7 km/h 88.2% 0 mm 0 W/m2
22:14 10.9 °C 9 °C 986 hPa ESE 1.9 km/h 8 km/h 88% 0 mm 0 W/m2
22:19 10.9 °C 9 °C 985.7 hPa SE 3.9 km/h 12.9 km/h 88% 0 mm 0 W/m2
22:24 10.9 °C 9 °C 985.7 hPa SE 1.9 km/h 6.4 km/h 88% 0 mm 0 W/m2
22:29 10.8 °C 8.9 °C 985.7 hPa ESE 4.2 km/h 11.3 km/h 88.2% 0 mm 0 W/m2
22:34 10.8 °C 9.1 °C 985.7 hPa East 2.4 km/h 8 km/h 89% 0 mm 0 W/m2
22:39 10.8 °C 9.1 °C 985.3 hPa East 2.6 km/h 6.4 km/h 89% 0 mm 0 W/m2
22:44 10.7 °C 9 °C 985.3 hPa SE 4.3 km/h 9.7 km/h 89% 0 mm 0 W/m2
22:49 10.7 °C 9 °C 985.3 hPa ESE 3.7 km/h 12.9 km/h 89% 0 mm 0 W/m2
22:54 10.6 °C 8.9 °C 985.3 hPa ESE 3.5 km/h 9.7 km/h 89% 0 mm 0 W/m2
22:59 10.5 °C 8.9 °C 985.3 hPa ESE 1.8 km/h 8 km/h 90% 0 mm 0 W/m2
23:04 10.4 °C 8.8 °C 985.3 hPa SE 2.6 km/h 11.3 km/h 90% 0 mm 0 W/m2
23:09 10.3 °C 8.8 °C 985.3 hPa ESE 3.7 km/h 9.7 km/h 90% 0 mm 0 W/m2
23:14 10.3 °C 8.7 °C 985 hPa SE 2.3 km/h 8 km/h 90% 0 mm 0 W/m2
23:19 10.3 °C 8.8 °C 985 hPa ESE 5.6 km/h 12.9 km/h 90.5% 0 mm 0 W/m2
23:24 10.3 °C 8.9 °C 984.6 hPa ESE 3.5 km/h 11.3 km/h 91% 0 mm 0 W/m2
23:29 10.3 °C 8.9 °C 984.6 hPa East 1.4 km/h 8 km/h 91% 0 mm 0 W/m2
23:34 10.3 °C 8.8 °C 985 hPa East 1.4 km/h 4.8 km/h 91% 0 mm 0 W/m2
23:39 10.2 °C 8.8 °C 985 hPa ESE 1.6 km/h 8 km/h 91% 0 mm 0 W/m2
23:44 10.2 °C 8.8 °C 985 hPa East 4 km/h 8 km/h 91% 0 mm 0 W/m2
23:49 10.2 °C 8.8 °C 984.6 hPa East 1 km/h 8 km/h 91% 0 mm 0 W/m2
23:54 10.3 °C 8.9 °C 984.6 hPa East 1.1 km/h 17.7 km/h 91% 0 mm 0 W/m2
23:59 10.3 °C 8.9 °C 984.6 hPa ESE 1.3 km/h 6.4 km/h 91% 0 mm 0 W/m2
Bath Spa Weather
Compliments of Weather Underground - 2 mb